Time;durP1;ratioP1;P1;durP2;ratioP2;P2;SDS_P1;SDS_P2;PMS_P1;PMS_P2;Temp;Humidity;BMP_temperature;BMP_pressure;BME280_temperature;BME280_humidity;BME280_pressure;Samples;Min_cycle;Max_cycle;Signal;HPM_P1;HPM_P2
2022/03/20 00:35:16;;;;;;;21.40;11.43;;;;;;;-4.50;93.20;99682.22;4954026;28;20151;-88
2022/03/20 00:37:42;;;;;;;22.42;11.88;;;;;;;-4.54;92.47;99693.41;4938763;29;20535;-88
2022/03/20 00:40:08;;;;;;;22.25;11.73;;;;;;;-4.37;92.86;99700.06;5010843;28;20060;-88
2022/03/20 00:42:34;;;;;;;30.35;12.75;;;;;;;-4.41;92.64;99700.78;5012572;28;20528;-88
2022/03/20 00:45:00;;;;;;;27.23;12.68;;;;;;;-4.31;92.76;99720.25;5005515;28;20025;-88
2022/03/20 00:47:25;;;;;;;32.28;13.95;;;;;;;-4.11;92.92;99755.69;5000542;28;20029;-88
2022/03/20 00:49:51;;;;;;;31.77;15.88;;;;;;;-4.54;92.14;99669.91;5000190;28;20025;-88
2022/03/20 00:52:17;;;;;;;35.72;16.77;;;;;;;-4.53;91.62;99661.25;4999801;28;20128;-88
2022/03/20 00:54:42;;;;;;;39.55;18.00;;;;;;;-4.05;91.19;99724.53;4999192;28;20029;-87
2022/03/20 00:57:08;;;;;;;60.65;23.48;;;;;;;-4.12;91.74;99733.06;4999521;28;20017;-88
2022/03/20 00:59:34;;;;;;;48.70;20.25;;;;;;;-4.24;92.39;99707.41;4999723;28;20031;-89
2022/03/20 01:01:59;;;;;;;33.28;16.45;;;;;;;-3.98;92.60;99740.47;4998865;28;20021;-89
2022/03/20 01:04:25;;;;;;;52.40;22.58;;;;;;;-4.08;93.06;99735.78;5003637;28;20064;-89
2022/03/20 01:06:51;;;;;;;55.60;23.38;;;;;;;-4.37;92.94;99706.13;5016182;28;20029;-87
2022/03/20 01:09:17;;;;;;;63.42;27.52;;;;;;;-4.32;93.29;99715.84;5012870;28;20033;-87
2022/03/20 01:11:42;;;;;;;40.17;19.42;;;;;;;-4.11;93.28;99751.38;5016637;28;20265;-88
2022/03/20 01:14:08;;;;;;;55.42;20.00;;;;;;;-4.26;93.10;99727.38;5000044;28;20037;-87
2022/03/20 01:16:34;;;;;;;39.33;18.23;;;;;;;-4.28;93.03;99734.28;4998959;28;20431;-87
2022/03/20 01:18:59;;;;;;;35.97;16.45;;;;;;;-4.37;94.03;99727.03;5003583;28;20029;-87
2022/03/20 01:21:25;;;;;;;40.95;16.58;;;;;;;-4.43;93.83;99731.19;5011528;28;20489;-86
2022/03/20 01:23:51;;;;;;;39.10;18.08;;;;;;;-4.53;94.32;99719.56;5015552;28;20033;-87
2022/03/20 01:26:16;;;;;;;31.90;13.60;;;;;;;-4.52;94.38;99738.75;4999593;28;20045;-88
2022/03/20 01:28:42;;;;;;;32.80;14.00;;;;;;;-4.40;94.36;99752.19;5000065;28;20098;-87
2022/03/20 01:31:09;;;;;;;32.13;14.15;;;;;;;-4.42;94.31;99740.78;5010738;28;20566;-88
2022/03/20 01:33:35;;;;;;;39.20;15.40;;;;;;;-4.55;93.68;99728.16;5014281;28;20037;-88
2022/03/20 01:36:00;;;;;;;34.25;15.48;;;;;;;-4.50;94.66;99744.88;5015446;28;20090;-87
2022/03/20 01:38:27;;;;;;;31.75;14.40;;;;;;;-4.51;95.01;99732.66;4998209;28;20491;-88
2022/03/20 01:40:53;;;;;;;28.35;13.85;;;;;;;-4.52;94.72;99742.22;5015027;28;20489;-88
2022/03/20 01:43:18;;;;;;;30.63;15.25;;;;;;;-4.67;95.84;99722.53;4998318;28;20068;-87
2022/03/20 01:45:50;;;;;;;31.08;14.48;;;;;;;-4.47;95.54;99751.09;5013866;28;20049;-88
2022/03/20 01:48:16;;;;;;;35.53;15.43;;;;;;;-4.48;95.27;99751.94;4998630;28;20098;-87
2022/03/20 01:50:42;;;;;;;33.22;14.95;;;;;;;-4.56;95.76;99749.91;4998665;28;20065;-88
2022/03/20 01:53:08;;;;;;;45.13;19.38;;;;;;;-4.53;95.62;99750.00;5004635;28;20033;-87
2022/03/20 01:55:34;;;;;;;35.67;15.70;;;;;;;-4.54;95.54;99754.34;5006938;28;20036;-88
2022/03/20 01:58:00;;;;;;;42.42;18.08;;;;;;;-4.87;95.73;99693.19;5015159;28;20037;-87
2022/03/20 02:00:27;;;;;;;54.35;22.13;;;;;;;-4.68;96.01;99739.97;5015424;28;20116;-88
2022/03/20 02:02:53;;;;;;;67.35;28.67;;;;;;;-4.66;95.87;99732.16;5014264;28;20022;-88
2022/03/20 02:05:22;;;;;;;86.80;32.22;;;;;;;-4.59;94.50;99739.38;5010581;28;20067;-88
2022/03/20 02:07:48;;;;;;;77.57;30.42;;;;;;;-4.55;94.25;99749.03;5014362;28;20547;-89
2022/03/20 02:10:14;;;;;;;68.35;29.15;;;;;;;-4.58;95.29;99739.41;4998240;28;20029;-88
2022/03/20 02:12:40;;;;;;;71.30;29.65;;;;;;;-4.68;95.09;99723.41;5005563;28;20021;-89
2022/03/20 02:15:09;;;;;;;70.85;28.92;;;;;;;-4.56;96.14;99749.91;5012878;28;20025;-88
2022/03/20 02:17:36;;;;;;;62.75;27.63;;;;;;;-4.55;96.09;99751.66;5015279;28;20128;-88
2022/03/20 02:20:05;;;;;;;61.63;27.08;;;;;;;-4.68;95.91;99733.84;4999023;28;20103;-88
2022/03/20 02:22:32;;;;;;;55.90;25.25;;;;;;;-4.70;96.37;99735.50;4998782;28;20029;-87
2022/03/20 02:25:00;;;;;;;43.05;20.88;;;;;;;-4.68;97.45;99746.91;5006052;28;20032;-88
2022/03/20 02:27:27;;;;;;;43.65;20.25;;;;;;;-4.69;97.51;99752.94;5011265;28;20026;-89
2022/03/20 02:30:00;;;;;;;47.20;20.88;;;;;;;-4.77;97.12;99741.38;5019473;28;20563;-88
2022/03/20 02:32:28;;;;;;;51.72;20.20;;;;;;;-4.80;97.22;99754.31;5006999;28;20106;-88
2022/03/20 02:35:02;;;;;;;65.13;27.38;;;;;;;-4.86;97.35;99744.53;5006264;28;20088;-88
2022/03/20 02:37:28;;;;;;;84.63;35.70;;;;;;;-4.85;97.80;99750.63;5014649;28;20048;-87
2022/03/20 02:39:56;;;;;;;67.40;27.63;;;;;;;-4.83;97.36;99765.53;5010920;28;20021;-88
2022/03/20 02:42:23;;;;;;;43.03;19.05;;;;;;;-4.96;97.87;99759.00;5017591;28;20021;-87
2022/03/20 02:44:55;;;;;;;54.08;20.77;;;;;;;-4.97;98.37;99772.88;5018161;28;20029;-87
2022/03/20 02:47:45;;;;;;;51.75;21.25;;;;;;;-4.99;98.47;99769.34;5018493;28;20060;-87
2022/03/20 02:50:19;;;;;;;44.20;20.58;;;;;;;-5.04;99.70;99770.88;5005422;28;20038;-87
2022/03/20 02:53:11;;;;;;;44.47;20.05;;;;;;;-5.02;100.00;99769.25;5010783;28;20413;-87
2022/03/20 02:55:39;;;;;;;31.73;14.00;;;;;;;-5.12;100.00;99767.13;5014735;28;20025;-89
2022/03/20 02:58:07;;;;;;;34.05;15.15;;;;;;;-5.06;100.00;99762.13;5014259;28;20112;-88
2022/03/20 03:00:37;;;;;;;30.92;14.75;;;;;;;-5.26;100.00;99752.69;5017926;28;20113;-88
2022/03/20 03:03:04;;;;;;;34.38;14.55;;;;;;;-5.17;100.00;99763.47;5018116;28;20025;-87
2022/03/20 03:05:31;;;;;;;34.25;15.55;;;;;;;-5.18;100.00;99755.59;5014301;28;20033;-87
2022/03/20 03:11:02;;;;;;;46.72;15.65;;;;;;;-5.27;100.00;99761.38;5011172;28;20041;-88
2022/03/20 03:13:36;;;;;;;33.58;14.00;;;;;;;-5.36;100.00;99755.81;4993286;28;20032;-87
2022/03/20 03:16:14;;;;;;;33.05;13.55;;;;;;;-5.27;100.00;99758.75;5001772;28;20534;-88
2022/03/20 03:18:44;;;;;;;34.42;13.35;;;;;;;-5.34;100.00;99764.59;5009967;28;20029;-88
2022/03/20 03:21:19;;;;;;;31.65;14.27;;;;;;;-5.53;100.00;99742.16;5017648;28;20025;-88
2022/03/20 03:23:45;;;;;;;38.97;14.18;;;;;;;-5.34;100.00;99767.19;5011067;28;20029;-88
2022/03/20 03:26:11;;;;;;;28.95;14.00;;;;;;;-5.44;100.00;99765.06;5018392;28;20120;-87
2022/03/20 03:28:37;;;;;;;34.33;14.50;;;;;;;-5.40;100.00;99768.69;5018589;28;20029;-88
2022/03/20 03:31:07;;;;;;;32.00;14.40;;;;;;;-5.50;100.00;99759.63;5018129;28;20029;-87
2022/03/20 03:33:34;;;;;;;31.88;14.52;;;;;;;-5.53;100.00;99768.25;5012974;28;20496;-87
2022/03/20 03:36:01;;;;;;;32.95;15.23;;;;;;;-5.57;100.00;99765.47;5013764;28;20040;-87
2022/03/20 03:38:34;;;;;;;32.60;15.07;;;;;;;-5.51;100.00;99776.13;5014031;28;20095;-87
2022/03/20 03:40:59;;;;;;;46.95;18.52;;;;;;;-5.67;100.00;99765.97;5001487;28;20040;-86
2022/03/20 03:43:25;;;;;;;46.33;19.23;;;;;;;-5.74;100.00;99758.72;5016450;28;20560;-88
2022/03/20 03:45:53;;;;;;;51.72;19.30;;;;;;;-5.78;100.00;99754.25;5017842;28;20114;-88
2022/03/20 03:48:19;;;;;;;39.88;16.88;;;;;;;-5.61;100.00;99774.00;5001713;28;20041;-88
2022/03/20 03:50:46;;;;;;;42.38;17.10;;;;;;;-5.65;100.00;99766.88;5000970;28;20037;-88
2022/03/20 03:53:12;;;;;;;46.17;19.75;;;;;;;-5.65;100.00;99761.69;5000704;28;20092;-88
2022/03/20 03:55:39;;;;;;;51.97;18.92;;;;;;;-5.45;100.00;99768.53;5008842;28;20040;-88
2022/03/20 03:58:05;;;;;;;36.35;16.50;;;;;;;-5.53;100.00;99738.66;5016951;28;20025;-86
2022/03/20 04:00:34;;;;;;;39.63;19.30;;;;;;;-5.45;100.00;99758.09;5016950;28;20476;-86
2022/03/20 04:03:00;;;;;;;41.60;17.65;;;;;;;-5.34;100.00;99769.78;5000839;28;20052;-87
2022/03/20 04:05:27;;;;;;;50.25;19.98;;;;;;;-5.31;100.00;99758.59;5006187;28;20467;-87
2022/03/20 04:07:53;;;;;;;45.78;19.58;;;;;;;-5.30;100.00;99761.25;5014348;28;20481;-86
2022/03/20 04:10:19;;;;;;;43.35;19.25;;;;;;;-5.38;100.00;99754.88;5000542;28;20107;-86
2022/03/20 04:12:44;;;;;;;50.88;20.35;;;;;;;-5.21;100.00;99766.81;5000656;28;20033;-86
2022/03/20 04:15:11;;;;;;;43.08;19.42;;;;;;;-5.22;100.00;99765.03;5001995;28;20438;-86
2022/03/20 04:17:38;;;;;;;40.72;19.77;;;;;;;-5.23;100.00;99765.84;5009844;28;20091;-86
2022/03/20 04:20:06;;;;;;;47.60;20.20;;;;;;;-5.25;100.00;99771.84;5017206;28;20021;-86
2022/03/20 04:22:38;;;;;;;44.38;20.33;;;;;;;-5.27;100.00;99766.59;5000804;28;20025;-88
2022/03/20 04:25:05;;;;;;;50.75;23.50;;;;;;;-5.27;100.00;99770.91;5010611;28;20062;-87
2022/03/20 04:27:32;;;;;;;52.78;22.75;;;;;;;-5.21;100.00;99792.00;5009009;28;20505;-88
2022/03/20 04:29:58;;;;;;;50.17;21.95;;;;;;;-5.34;100.00;99763.69;5014730;28;20034;-88
2022/03/20 04:32:24;;;;;;;48.60;19.38;;;;;;;-5.37;100.00;99785.34;5001111;28;20576;-87
2022/03/20 04:34:53;;;;;;;38.40;16.90;;;;;;;-5.56;100.00;99759.41;5013473;28;20394;-87
2022/03/20 04:37:21;;;;;;;33.88;16.17;;;;;;;-5.52;99.88;99769.13;5001142;28;20059;-86
2022/03/20 04:39:47;;;;;;;43.17;15.45;;;;;;;-5.52;100.00;99784.78;5016236;28;20033;-86
2022/03/20 04:42:13;;;;;;;34.65;15.85;;;;;;;-5.43;99.27;99799.84;5016947;28;20021;-87
2022/03/20 04:44:40;;;;;;;29.35;14.07;;;;;;;-5.61;99.07;99776.59;5013838;28;20164;-86
2022/03/20 04:58:28;;;;;;;26.58;13.60;;;;;;;-5.68;99.01;99774.59;5016304;28;20022;-88
2022/03/20 05:00:51;;;;;;;31.08;13.95;;;;;;;-5.45;100.00;99802.44;5008311;28;20037;-88
2022/03/20 05:03:16;;;;;;;48.10;19.60;;;;;;;-5.30;99.85;99808.19;5014557;28;20408;-87
2022/03/20 05:05:42;;;;;;;38.28;16.88;;;;;;;-5.40;99.71;99780.00;5006212;28;20038;-88
2022/03/20 05:08:07;;;;;;;43.88;16.98;;;;;;;-5.15;100.00;99800.94;5011729;28;20026;-88
2022/03/20 05:13:20;;;;;;;44.78;17.17;;;;;;;-4.61;97.71;99795.84;5009636;28;20472;-88
2022/03/20 05:15:45;;;;;;;39.40;18.15;;;;;;;-4.31;96.36;99783.81;5009743;28;20029;-87
2022/03/20 05:18:11;;;;;;;54.38;21.50;;;;;;;-3.86;92.71;99792.22;5016821;28;20033;-88
2022/03/20 05:20:43;;;;;;;48.72;21.50;;;;;;;-2.72;88.22;99806.00;5014967;28;20029;-91
2022/03/20 05:23:13;;;;;;;49.13;21.25;;;;;;;-1.80;80.57;99782.09;5001259;28;20029;-89
2022/03/20 05:25:38;;;;;;;47.47;20.65;;;;;;;-0.71;73.56;99785.25;5008032;28;20060;-86
2022/03/20 05:28:04;;;;;;;50.13;22.88;;;;;;;0.18;67.98;99756.06;4997405;28;20030;-87
2022/03/20 05:30:31;;;;;;;60.28;22.65;;;;;;;1.07;63.35;99762.50;5013564;28;20025;-88
2022/03/20 05:32:57;;;;;;;50.85;22.13;;;;;;;1.83;59.17;99763.25;5009072;28;20508;-89
2022/03/20 05:35:23;;;;;;;49.00;21.80;;;;;;;2.72;55.94;99772.66;5015020;28;20030;-90
2022/03/20 05:37:49;;;;;;;51.13;21.77;;;;;;;3.00;54.38;99773.66;5001113;28;20033;-89
2022/03/20 05:40:15;;;;;;;44.03;18.90;;;;;;;3.18;53.04;99747.28;5008391;28;20048;-91
2022/03/20 05:42:44;;;;;;;41.47;20.90;;;;;;;3.34;51.43;99769.38;5009017;28;20584;-89
2022/03/20 05:45:24;;;;;;;38.10;18.77;;;;;;;3.45;50.71;99753.50;5017163;28;20029;-89
2022/03/20 05:47:50;;;;;;;40.25;19.23;;;;;;;4.19;50.11;99770.31;5000634;28;20033;-90
2022/03/20 05:50:15;;;;;;;38.95;19.00;;;;;;;4.89;47.61;99756.94;5005560;28;20021;-76
2022/03/20 05:52:44;;;;;;;36.67;19.55;;;;;;;5.07;46.78;99729.44;5025447;28;20025;-91
2022/03/20 05:55:10;;;;;;;38.33;19.75;;;;;;;5.93;44.88;99727.13;5002434;28;20120;-90
2022/03/20 06:10:34;;;;;;;47.10;22.45;;;;;;;7.25;40.85;99699.00;5029390;28;20035;-90
2022/03/20 06:13:08;;;;;;;53.75;23.17;;;;;;;6.90;39.91;99670.22;5011067;28;20046;-90
2022/03/20 06:15:37;;;;;;;44.63;23.60;;;;;;;6.70;40.85;99677.59;5009575;28;20523;-90
2022/03/20 06:18:05;;;;;;;56.22;28.13;;;;;;;6.77;41.67;99729.78;5007178;28;20033;-75
2022/03/20 06:20:37;;;;;;;53.55;25.52;;;;;;;6.57;42.02;99737.13;5027176;28;20033;-91
2022/03/20 06:23:09;;;;;;;45.17;22.45;;;;;;;6.22;42.33;99729.50;5011969;28;20362;-78
2022/03/20 06:25:37;;;;;;;43.97;20.90;;;;;;;6.15;42.28;99735.78;5032057;28;20457;-80
2022/03/20 06:28:03;;;;;;;36.40;18.73;;;;;;;6.27;43.43;99742.75;5012851;28;20037;-81
2022/03/20 06:30:33;;;;;;;32.35;16.77;;;;;;;6.58;42.42;99753.97;4996570;28;20095;-77
2022/03/20 06:32:59;;;;;;;35.97;18.58;;;;;;;7.15;41.37;99773.66;5011466;28;20060;-83
2022/03/20 06:35:25;;;;;;;39.10;19.50;;;;;;;6.59;42.08;99730.00;5002463;28;20120;-84
2022/03/20 06:37:53;;;;;;;31.10;17.58;;;;;;;7.43;40.64;99746.66;5007409;28;20052;-87
2022/03/20 06:40:19;;;;;;;40.63;22.50;;;;;;;8.00;39.45;99742.22;5012217;28;20038;-89
2022/03/20 06:42:44;;;;;;;38.28;19.05;;;;;;;7.89;39.96;99730.88;4997863;28;20032;-76
2022/03/20 06:45:11;;;;;;;27.92;16.30;;;;;;;8.76;38.01;99764.03;5024679;28;20409;-75
2022/03/20 06:47:39;;;;;;;31.08;16.42;;;;;;;8.97;37.48;99759.16;5012743;28;20451;-79
2022/03/20 06:50:32;;;;;;;35.60;17.17;;;;;;;9.75;36.28;99728.97;5011397;28;20033;-93
2022/03/20 06:53:02;;;;;;;30.60;17.60;;;;;;;9.80;35.25;99719.91;5005922;28;20470;-85
2022/03/20 06:55:30;;;;;;;35.58;18.73;;;;;;;9.10;35.92;99720.63;5012765;28;20025;-89
2022/03/20 06:58:00;;;;;;;51.25;24.80;;;;;;;9.64;34.92;99749.69;5008520;28;20030;-79
2022/03/20 07:00:28;;;;;;;33.38;18.67;;;;;;;9.85;34.74;99733.16;5007253;28;20104;-76
2022/03/20 07:02:54;;;;;;;35.63;17.08;;;;;;;10.05;34.02;99733.56;5009495;28;20232;-81
2022/03/20 07:05:20;;;;;;;26.65;15.38;;;;;;;10.45;33.55;99724.53;5012666;28;20102;-77
2022/03/20 07:07:46;;;;;;;32.28;17.80;;;;;;;11.18;32.05;99718.00;5007851;28;20029;-81
2022/03/20 07:10:13;;;;;;;43.42;20.10;;;;;;;11.31;32.18;99704.19;5010688;28;20044;-77
2022/03/20 07:12:39;;;;;;;39.60;22.08;;;;;;;11.82;32.24;99708.88;5011074;28;20021;-79
2022/03/20 07:15:05;;;;;;;41.03;23.38;;;;;;;12.10;31.76;99725.81;5011765;28;20133;-78
2022/03/20 07:17:36;;;;;;;51.00;29.15;;;;;;;12.30;31.26;99717.13;5001487;28;20033;-86
2022/03/20 07:20:02;;;;;;;48.75;27.15;;;;;;;11.58;31.35;99701.59;5012422;28;20052;-79
2022/03/20 07:22:31;;;;;;;58.78;32.55;;;;;;;10.91;32.07;99708.97;5005970;28;20099;-80
2022/03/20 07:29:29;;;;;;;48.72;29.17;;;;;;;9.99;32.78;99690.94;4998031;28;20033;-79
2022/03/20 07:30:32;;;;;;;56.42;31.15;;;;;;;9.80;33.25;99700.31;5018447;28;20040;-80
2022/03/20 07:32:58;;;;;;;47.30;27.67;;;;;;;9.94;33.31;99713.31;5005945;28;20033;-80
2022/03/20 07:35:24;;;;;;;47.60;28.63;;;;;;;10.55;32.64;99700.16;5006826;28;20126;-79
2022/03/20 07:37:53;;;;;;;49.20;29.42;;;;;;;11.10;31.88;99702.16;4991725;28;20120;-79
2022/03/20 07:40:19;;;;;;;57.25;29.08;;;;;;;12.27;30.76;99698.44;5012833;28;20088;-79
2022/03/20 07:42:44;;;;;;;49.50;28.80;;;;;;;11.91;31.01;99676.38;5012711;28;20568;-81
2022/03/20 07:45:10;;;;;;;42.97;25.42;;;;;;;12.22;31.14;99701.25;4998988;28;20026;-80
2022/03/20 07:47:36;;;;;;;54.95;28.48;;;;;;;12.24;30.32;99685.13;5008222;28;20716;-81
2022/03/20 07:50:04;;;;;;;51.40;29.38;;;;;;;12.95;30.20;99683.41;5012532;28;20034;-79
2022/03/20 07:52:29;;;;;;;37.63;21.63;;;;;;;11.99;30.68;99698.50;5013109;28;20124;-80
2022/03/20 07:54:55;;;;;;;44.10;23.40;;;;;;;11.98;30.98;99677.94;5003518;28;20021;-80
2022/03/20 07:57:21;;;;;;;31.95;17.08;;;;;;;12.50;30.07;99679.72;5014147;28;20105;-80
2022/03/20 07:59:47;;;;;;;29.25;16.92;;;;;;;12.64;30.10;99673.84;5008292;28;20036;-80
2022/03/20 08:02:13;;;;;;;28.58;13.52;;;;;;;11.90;29.96;99663.94;5007873;28;20481;-80
2022/03/20 08:04:40;;;;;;;20.75;12.50;;;;;;;12.10;30.16;99656.06;5010586;28;20025;-80
2022/03/20 08:07:06;;;;;;;24.42;12.23;;;;;;;12.02;31.30;99658.16;5011631;28;21552;-80
2022/03/20 08:09:32;;;;;;;22.60;12.50;;;;;;;13.11;30.12;99664.03;4997954;28;20023;-80
2022/03/20 08:11:58;;;;;;;14.98;9.80;;;;;;;13.27;27.94;99649.09;5005938;28;20029;-78
2022/03/20 08:14:25;;;;;;;17.95;9.70;;;;;;;12.82;28.32;99636.47;5012867;28;20029;-78
2022/03/20 08:16:51;;;;;;;15.52;8.45;;;;;;;13.37;27.90;99642.41;4997920;28;20030;-79
2022/03/20 08:19:19;;;;;;;13.50;8.60;;;;;;;14.26;27.01;99630.59;5010396;28;20029;-81
2022/03/20 08:21:47;;;;;;;16.52;8.32;;;;;;;14.33;27.80;99597.13;4998094;28;20033;-79
2022/03/20 08:24:14;;;;;;;14.60;8.45;;;;;;;14.79;26.85;99616.59;5004180;28;20798;-79
2022/03/20 08:26:40;;;;;;;14.13;8.82;;;;;;;15.07;26.03;99603.59;5013256;28;20099;-75
2022/03/20 08:29:10;;;;;;;14.32;7.45;;;;;;;15.57;25.38;99606.56;5002232;28;20512;-77
2022/03/20 08:31:36;;;;;;;12.10;8.20;;;;;;;14.22;26.15;99617.31;5012513;28;20018;-81
2022/03/20 08:34:03;;;;;;;11.48;7.22;;;;;;;13.03;26.86;99607.91;5013721;28;20122;-82
2022/03/20 08:36:28;;;;;;;11.55;7.80;;;;;;;13.99;27.16;99605.75;5007898;28;20029;-87
2022/03/20 08:38:54;;;;;;;13.38;8.10;;;;;;;13.57;26.70;99611.09;5004462;28;20036;-74
2022/03/20 08:41:23;;;;;;;13.10;7.35;;;;;;;12.21;27.67;99602.91;5013569;28;20033;-75
2022/03/20 08:43:48;;;;;;;12.07;7.68;;;;;;;13.22;27.27;99608.97;5006075;28;20140;-82
2022/03/20 08:46:17;;;;;;;15.93;8.65;;;;;;;13.82;26.13;99605.56;4995757;28;20116;-75
2022/03/20 08:48:43;;;;;;;16.30;9.18;;;;;;;13.92;26.50;99596.19;5005342;28;20048;-77
2022/03/20 08:51:08;;;;;;;21.83;13.90;;;;;;;14.96;25.49;99593.28;5010565;28;20030;-78
2022/03/20 08:53:34;;;;;;;24.95;11.77;;;;;;;13.98;26.15;99584.28;4992772;28;20044;-75
2022/03/20 08:56:00;;;;;;;20.95;9.70;;;;;;;13.54;26.63;99575.38;5028554;28;20097;-79
2022/03/20 08:58:25;;;;;;;12.27;7.72;;;;;;;12.17;27.90;99579.81;5012685;28;20051;-76
2022/03/20 09:00:51;;;;;;;14.50;8.18;;;;;;;12.81;27.18;99569.34;4997804;28;20060;-75
2022/03/20 09:03:17;;;;;;;12.63;8.55;;;;;;;12.85;27.32;99576.38;4996287;28;20127;-77
2022/03/20 09:05:43;;;;;;;16.20;7.82;;;;;;;11.46;28.48;99579.56;5011103;28;20042;-75
2022/03/20 09:08:09;;;;;;;11.00;6.88;;;;;;;11.11;28.72;99582.47;4995174;28;20040;-75
2022/03/20 09:10:35;;;;;;;13.73;7.97;;;;;;;11.82;28.83;99575.69;4995052;28;20041;-76
2022/03/20 09:13:01;;;;;;;13.20;8.57;;;;;;;12.69;27.42;99569.81;5010840;28;20382;-76
2022/03/20 09:15:29;;;;;;;16.77;8.18;;;;;;;13.91;26.19;99556.75;5011291;28;20029;-76
2022/03/20 09:20:41;;;;;;;12.10;6.93;;;;;;;13.85;25.31;99550.75;5013622;28;20507;-76
2022/03/20 09:23:08;;;;;;;11.00;7.00;;;;;;;14.69;25.70;99556.84;5010223;28;20021;-76
2022/03/20 09:25:34;;;;;;;10.30;7.30;;;;;;;15.60;23.94;99533.56;5010780;28;20033;-76
2022/03/20 09:28:00;;;;;;;14.65;7.40;;;;;;;15.91;23.49;99532.84;4993889;28;20098;-76
2022/03/20 09:30:26;;;;;;;15.00;7.93;;;;;;;15.74;23.94;99528.34;5010520;28;20061;-74
2022/03/20 09:32:52;;;;;;;20.75;8.35;;;;;;;16.51;22.83;99521.53;5010578;28;20072;-74
2022/03/20 09:35:18;;;;;;;10.57;6.88;;;;;;;16.78;21.95;99503.81;5010411;28;20061;-75
2022/03/20 09:37:44;;;;;;;11.57;6.82;;;;;;;15.70;23.29;99510.56;5004325;28;20111;-76
2022/03/20 09:40:10;;;;;;;12.98;7.38;;;;;;;16.18;23.08;99507.16;5003197;28;20128;-73
2022/03/20 09:42:36;;;;;;;25.75;8.45;;;;;;;16.35;23.06;99507.09;5010435;28;20052;-75
2022/03/20 09:45:04;;;;;;;14.20;6.93;;;;;;;16.19;22.52;99498.06;5003303;28;20504;-75
2022/03/20 09:47:29;;;;;;;15.23;9.30;;;;;;;17.10;22.46;99493.03;4994179;28;20390;-75
2022/03/20 09:49:58;;;;;;;13.10;7.50;;;;;;;17.81;21.82;99486.13;5010311;28;20034;-76
2022/03/20 09:52:25;;;;;;;20.85;11.77;;;;;;;17.15;21.80;99464.75;4993451;28;20025;-76
2022/03/20 09:54:51;;;;;;;17.80;8.48;;;;;;;13.53;24.65;99466.94;5010377;28;20025;-74
2022/03/20 09:57:17;;;;;;;15.82;8.50;;;;;;;12.16;26.46;99478.78;4993897;28;20040;-75
2022/03/20 09:59:42;;;;;;;11.38;6.30;;;;;;;11.64;26.74;99494.97;5010544;28;20037;-76
2022/03/20 10:02:10;;;;;;;18.80;8.75;;;;;;;11.07;27.27;99493.34;5010290;28;20129;-75
2022/03/20 10:04:59;;;;;;;8.18;4.43;;;;;;;12.91;23.66;99485.69;5027868;28;20040;-75
2022/03/20 10:07:28;;;;;;;7.38;4.93;;;;;;;13.64;23.51;99471.00;4999550;28;20132;-75
2022/03/20 10:10:06;;;;;;;9.57;5.90;;;;;;;15.69;21.88;99469.19;4996889;28;20026;-75
2022/03/20 10:12:33;;;;;;;8.93;5.25;;;;;;;16.91;21.45;99457.16;5027945;28;20382;-76
2022/03/20 10:14:59;;;;;;;11.13;6.93;;;;;;;17.72;20.25;99448.75;4993911;28;20037;-75
2022/03/20 10:17:25;;;;;;;14.90;7.25;;;;;;;18.44;19.78;99440.63;4993623;28;20032;-75
2022/03/20 10:19:50;;;;;;;39.63;21.15;;;;;;;19.35;18.68;99445.47;4993930;28;20452;-76
2022/03/20 10:22:17;;;;;;;16.33;9.90;;;;;;;18.68;18.98;99446.34;5010082;28;20025;-76
2022/03/20 10:24:48;;;;;;;7.75;4.80;;;;;;;18.73;18.49;99439.66;4994240;28;20029;-74
2022/03/20 10:27:14;;;;;;;7.18;4.85;;;;;;;19.46;18.23;99448.38;4993201;28;20033;-78
2022/03/20 10:29:54;;;;;;;8.25;4.95;;;;;;;19.84;17.34;99429.47;5008839;28;20044;-75
2022/03/20 10:32:21;;;;;;;8.40;4.78;;;;;;;16.33;19.35;99421.69;5001660;28;20033;-76
2022/03/20 10:34:54;;;;;;;9.95;5.05;;;;;;;15.83;19.64;99441.50;5010090;28;20532;-75
2022/03/20 10:37:23;;;;;;;6.78;4.45;;;;;;;15.53;20.36;99433.19;4993345;28;20042;-75
2022/03/20 10:40:07;;;;;;;10.18;5.00;;;;;;;15.77;21.36;99438.25;5002364;28;20040;-75
2022/03/20 10:42:42;;;;;;;7.22;4.78;;;;;;;16.94;19.21;99429.97;5005950;28;20022;-75
2022/03/20 10:45:08;;;;;;;9.52;4.60;;;;;;;15.32;19.94;99434.25;5008849;28;20460;-76
2022/03/20 10:47:34;;;;;;;11.73;4.75;;;;;;;14.20;21.89;99442.44;5001978;28;20120;-75
2022/03/20 10:50:06;;;;;;;6.68;4.68;;;;;;;14.82;21.43;99438.59;5012196;28;20515;-76
2022/03/20 10:52:35;;;;;;;7.30;4.90;;;;;;;15.57;20.79;99434.75;5016540;28;20124;-74
2022/03/20 10:55:06;;;;;;;9.35;5.10;;;;;;;16.02;20.70;99419.81;5009989;28;20389;-76
2022/03/20 10:57:34;;;;;;;7.60;4.78;;;;;;;16.06;20.33;99418.66;5016250;28;20040;-75
2022/03/20 11:00:05;;;;;;;9.68;5.15;;;;;;;15.50;20.31;99430.66;5016444;28;20025;-76
2022/03/20 11:02:32;;;;;;;9.23;4.85;;;;;;;16.64;20.06;99413.66;5001254;28;20022;-76
2022/03/20 11:04:57;;;;;;;14.52;5.15;;;;;;;17.15;19.52;99410.66;5016264;28;20433;-76
2022/03/20 11:07:23;;;;;;;6.65;4.35;;;;;;;17.29;18.84;99399.00;5001013;28;20067;-74
2022/03/20 11:09:51;;;;;;;7.35;5.18;;;;;;;17.71;19.43;99404.59;5000013;28;20021;-75
2022/03/20 11:12:27;;;;;;;10.63;4.80;;;;;;;18.35;18.93;99404.13;5016095;28;20036;-75
2022/03/20 11:14:57;;;;;;;6.38;4.45;;;;;;;17.56;19.51;99400.13;4999551;28;20033;-75
2022/03/20 11:17:27;;;;;;;12.98;4.97;;;;;;;16.53;20.44;99394.44;4999201;28;20040;-75
2022/03/20 11:19:54;;;;;;;7.18;4.90;;;;;;;14.57;21.42;99403.91;5015913;28;20534;-75
2022/03/20 11:22:21;;;;;;;10.10;4.70;;;;;;;15.86;20.65;99394.59;5015533;28;20183;-75
2022/03/20 11:24:49;;;;;;;8.30;4.78;;;;;;;14.80;21.42;99400.06;5015987;28;20025;-75
2022/03/20 11:27:30;;;;;;;10.00;5.00;;;;;;;15.97;20.54;99384.94;5015077;28;20036;-76
2022/03/20 11:30:09;;;;;;;9.63;4.78;;;;;;;16.41;20.86;99381.63;5009625;28;20026;-77
2022/03/20 11:32:35;;;;;;;8.80;4.90;;;;;;;15.86;20.64;99397.28;5014641;28;20049;-75
2022/03/20 11:35:03;;;;;;;7.40;4.93;;;;;;;15.71;20.59;99380.97;5015712;28;20042;-74
2022/03/20 11:37:43;;;;;;;8.65;4.65;;;;;;;16.20;20.52;99381.00;5015931;28;20029;-75
2022/03/20 11:40:20;;;;;;;10.20;4.40;;;;;;;16.12;20.25;99384.09;5012499;28;20545;-75
2022/03/20 11:42:47;;;;;;;11.48;6.18;;;;;;;16.06;21.11;99378.16;5011553;28;20185;-74
2022/03/20 11:45:18;;;;;;;10.88;5.40;;;;;;;16.29;20.34;99377.78;5011008;28;20025;-75
2022/03/20 11:47:49;;;;;;;8.48;5.38;;;;;;;16.37;20.46;99377.34;5010229;28;20381;-74
2022/03/20 11:50:24;;;;;;;7.20;4.70;;;;;;;16.30;20.96;99357.06;5012200;28;20025;-76
2022/03/20 11:53:00;;;;;;;10.77;5.25;;;;;;;15.86;20.52;99357.69;5008886;28;20450;-73
2022/03/20 11:55:34;;;;;;;9.52;5.50;;;;;;;16.71;20.58;99361.88;5028510;28;20040;-73
2022/03/20 11:58:02;;;;;;;9.57;5.57;;;;;;;17.38;20.32;99355.16;4995387;28;20044;-74
2022/03/20 12:00:31;;;;;;;8.65;5.85;;;;;;;18.35;19.11;99368.91;5011079;28;20393;-74
2022/03/20 12:03:14;;;;;;;19.17;5.47;;;;;;;18.89;18.60;99360.84;5011871;28;20061;-76
2022/03/20 12:05:58;;;;;;;8.80;5.25;;;;;;;19.07;18.13;99362.38;5027061;28;20103;-75
2022/03/20 12:08:34;;;;;;;8.45;4.97;;;;;;;18.06;18.62;99352.75;5024700;28;20025;-77
2022/03/20 12:11:28;;;;;;;7.07;4.47;;;;;;;17.16;19.12;99346.63;5032292;28;20572;-76
2022/03/20 12:14:05;;;;;;;10.52;5.25;;;;;;;17.05;19.25;99332.84;5029673;28;20425;-83
2022/03/20 12:16:43;;;;;;;9.32;5.20;;;;;;;17.72;18.99;99333.22;5013329;28;20369;-75
2022/03/20 12:19:14;;;;;;;11.75;6.07;;;;;;;17.30;19.21;99315.06;5021102;28;20030;-78
2022/03/20 12:21:58;;;;;;;12.85;6.00;;;;;;;17.32;19.74;99337.47;5005961;28;20397;-76
2022/03/20 12:24:36;;;;;;;11.25;7.13;;;;;;;17.47;19.03;99324.00;5027272;28;20096;-80
2022/03/20 12:27:22;;;;;;;13.40;5.32;;;;;;;17.28;19.08;99327.81;5028472;28;20032;-81
2022/03/20 12:30:13;;;;;;;8.55;6.00;;;;;;;18.05;18.82;99323.94;5023075;28;20144;-81
2022/03/20 12:32:48;;;;;;;8.95;4.95;;;;;;;16.91;18.95;99313.88;5028179;28;20023;-80
2022/03/20 12:35:16;;;;;;;7.43;4.45;;;;;;;16.17;19.50;99297.44;5030246;28;20128;-81
2022/03/20 12:37:44;;;;;;;10.25;4.75;;;;;;;16.34;19.59;99297.34;5022367;28;20097;-80